Terminal Aerodrome Forecast
Issued by NWS Twin Cities, MN

Home | Current Version | Previous Version | Graphics & Text | Print | Product List | Glossary On
Versions: 1 2 3 4 5 6 7 8 9 10 11 12 13 14
932
FTUS43 KMPX 090948 AAA
TAFEAU
TAF AMD
KEAU 090948Z 0910/1006 33010G16KT 6SM -SN SCT025 OVC060
     FM091200 33011G19KT P6SM BKN040
     FM091700 33011G18KT P6SM SCT040
     FM100100 32009KT P6SM SKC=

USA.gov is the U.S. government's official web portal to all federal, state and local government web resources and services.